createdAt,value
2018-07-27T00:00:14.523Z,1005.02
2018-07-27T00:01:20.063Z,1005.04
2018-07-27T00:02:25.562Z,1005.00
2018-07-27T00:03:31.084Z,1004.96
2018-07-27T00:04:36.606Z,1004.96
2018-07-27T00:05:42.137Z,1005.00
2018-07-27T00:06:47.642Z,1004.99
2018-07-27T00:07:53.175Z,1004.98
2018-07-27T00:08:58.686Z,1005.00
2018-07-27T00:10:04.213Z,1005.01
2018-07-27T00:11:09.733Z,1004.98
2018-07-27T00:12:16.121Z,1004.98
2018-07-27T00:13:20.770Z,1005.00
2018-07-27T00:14:26.298Z,1004.96
2018-07-27T00:15:31.854Z,1004.95
2018-07-27T00:16:37.333Z,1004.99
2018-07-27T00:17:42.849Z,1004.95
2018-07-27T00:18:48.370Z,1004.97
2018-07-27T00:19:53.897Z,1004.92
2018-07-27T00:20:59.410Z,1004.93
2018-07-27T00:22:04.931Z,1004.95
2018-07-27T00:23:10.453Z,1004.91
2018-07-27T00:24:15.973Z,1004.94
2018-07-27T00:25:21.500Z,1004.93
2018-07-27T00:26:27.023Z,1004.91
2018-07-27T00:27:32.529Z,1004.91
2018-07-27T00:28:38.056Z,1004.88
2018-07-27T00:29:43.573Z,1004.90
2018-07-27T00:30:49.096Z,1004.92
2018-07-27T00:31:54.606Z,1004.92
2018-07-27T00:33:00.142Z,1004.92
2018-07-27T00:34:05.659Z,1004.90
2018-07-27T00:35:11.173Z,1004.91
2018-07-27T00:36:16.689Z,1004.92
2018-07-27T00:37:22.209Z,1004.94
2018-07-27T00:38:27.734Z,1004.89
2018-07-27T00:39:33.250Z,1004.90
2018-07-27T00:40:38.771Z,1004.89
2018-07-27T00:41:44.293Z,1004.87
2018-07-27T00:42:49.818Z,1004.86
2018-07-27T00:43:55.332Z,1004.83
2018-07-27T00:45:00.851Z,1004.81
2018-07-27T00:46:06.375Z,1004.83
2018-07-27T00:47:11.891Z,1004.82
2018-07-27T00:48:17.413Z,1004.82
2018-07-27T00:49:22.930Z,1004.83
2018-07-27T00:50:28.460Z,1004.84
2018-07-27T00:51:33.976Z,1004.84
2018-07-27T00:52:39.495Z,1004.86
2018-07-27T00:53:45.018Z,1004.85
2018-07-27T00:54:50.530Z,1004.86
2018-07-27T00:55:56.053Z,1004.85
2018-07-27T00:57:01.573Z,1004.85
2018-07-27T00:58:07.091Z,1004.84
2018-07-27T00:59:12.616Z,1004.81
2018-07-27T01:00:18.135Z,1004.78
2018-07-27T01:01:23.652Z,1004.78
2018-07-27T01:02:29.174Z,1004.79
2018-07-27T01:03:34.696Z,1004.79
2018-07-27T01:04:40.212Z,1004.78
2018-07-27T01:05:45.735Z,1004.79
2018-07-27T01:06:51.255Z,1004.71
2018-07-27T01:07:56.776Z,1004.73
2018-07-27T01:09:02.293Z,1004.73
2018-07-27T01:10:07.814Z,1004.71
2018-07-27T01:11:13.330Z,1004.70
2018-07-27T01:12:18.856Z,1004.72
2018-07-27T01:13:24.391Z,1004.70
2018-07-27T01:14:29.891Z,1004.72
2018-07-27T01:15:35.416Z,1004.70
2018-07-27T01:16:40.933Z,1004.69
2018-07-27T01:17:46.462Z,1004.66
2018-07-27T01:18:51.972Z,1004.68
2018-07-27T01:19:57.498Z,1004.64
2018-07-27T01:21:03.013Z,1004.66
2018-07-27T01:22:08.535Z,1004.65
2018-07-27T01:23:14.055Z,1004.66
2018-07-27T01:24:19.572Z,1004.63
2018-07-27T01:25:25.092Z,1004.63
2018-07-27T01:26:30.612Z,1004.61
2018-07-27T01:27:36.130Z,1004.62
2018-07-27T01:28:41.653Z,1004.58
2018-07-27T01:29:47.171Z,1004.60
2018-07-27T01:30:52.697Z,1004.64
2018-07-27T01:31:58.211Z,1004.61
2018-07-27T01:33:03.734Z,1004.59
2018-07-27T01:34:09.255Z,1004.57
2018-07-27T01:35:14.778Z,1004.55
2018-07-27T01:36:20.290Z,1004.54
2018-07-27T01:37:25.812Z,1004.55
2018-07-27T01:38:31.332Z,1004.52
2018-07-27T01:39:36.848Z,1004.52
2018-07-27T01:40:42.367Z,1004.52
2018-07-27T01:41:47.888Z,1004.52
2018-07-27T01:42:53.412Z,1004.52
2018-07-27T01:43:58.929Z,1004.53
2018-07-27T01:45:04.448Z,1004.54
2018-07-27T01:46:09.968Z,1004.51
2018-07-27T01:47:15.487Z,1004.56
2018-07-27T01:48:21.022Z,1004.53
2018-07-27T01:49:26.530Z,1004.53
2018-07-27T01:50:32.046Z,1004.54
2018-07-27T01:51:37.564Z,1004.53
2018-07-27T01:52:43.094Z,1004.49
2018-07-27T01:53:48.606Z,1004.52
2018-07-27T01:54:54.127Z,1004.53
2018-07-27T01:55:59.644Z,1004.56
2018-07-27T01:57:05.166Z,1004.56
2018-07-27T01:58:10.686Z,1004.55
2018-07-27T01:59:16.206Z,1004.52
2018-07-27T02:00:21.724Z,1004.52
2018-07-27T02:01:27.244Z,1004.52
2018-07-27T02:02:32.763Z,1004.52
2018-07-27T02:03:38.281Z,1004.48
2018-07-27T02:04:43.800Z,1004.53
2018-07-27T02:05:49.321Z,1004.53
2018-07-27T02:06:54.839Z,1004.52
2018-07-27T02:08:00.365Z,1004.51
2018-07-27T02:09:05.886Z,1004.52
2018-07-27T02:10:11.400Z,1004.54
2018-07-27T02:11:16.921Z,1004.53
2018-07-27T02:12:22.439Z,1004.55
2018-07-27T02:13:27.964Z,1004.55
2018-07-27T02:14:33.478Z,1004.52
2018-07-27T02:15:38.996Z,1004.54
2018-07-27T02:16:44.519Z,1004.55
2018-07-27T02:17:50.035Z,1004.50
2018-07-27T02:18:55.555Z,1004.47
2018-07-27T02:20:01.089Z,1004.50
2018-07-27T02:21:06.596Z,1004.47
2018-07-27T02:22:12.113Z,1004.47
2018-07-27T02:23:17.631Z,1004.44
2018-07-27T02:24:23.160Z,1004.40
2018-07-27T02:25:28.673Z,1004.43
2018-07-27T02:26:34.187Z,1004.44
2018-07-27T02:27:39.710Z,1004.41
2018-07-27T02:28:45.228Z,1004.41
2018-07-27T02:29:50.748Z,1004.40
2018-07-27T02:30:56.273Z,1004.40
2018-07-27T02:32:01.792Z,1004.41
2018-07-27T02:33:07.307Z,1004.38
2018-07-27T02:34:12.830Z,1004.35
2018-07-27T02:35:18.345Z,1004.34
2018-07-27T02:36:23.864Z,1004.33
2018-07-27T02:37:29.384Z,1004.34
2018-07-27T02:38:34.904Z,1004.33
2018-07-27T02:39:40.423Z,1004.37
2018-07-27T02:40:45.943Z,1004.34
2018-07-27T02:41:51.456Z,1004.36
2018-07-27T02:42:56.983Z,1004.36
2018-07-27T02:44:02.501Z,1004.35
2018-07-27T02:45:08.019Z,1004.30
2018-07-27T02:46:13.535Z,1004.35
2018-07-27T02:47:19.061Z,1004.31
2018-07-27T02:48:24.571Z,1004.28
2018-07-27T02:49:30.093Z,1004.28
2018-07-27T02:50:35.620Z,1004.28
2018-07-27T02:51:41.125Z,1004.31
2018-07-27T02:52:46.651Z,1004.25
2018-07-27T02:53:52.168Z,1004.24
2018-07-27T02:54:57.688Z,1004.27
2018-07-27T02:56:03.207Z,1004.25
2018-07-27T02:57:08.727Z,1004.25
2018-07-27T02:58:14.244Z,1004.24
2018-07-27T02:59:19.761Z,1004.26
2018-07-27T03:00:25.279Z,1004.26
2018-07-27T03:01:30.802Z,1004.21
2018-07-27T03:02:36.320Z,1004.22
2018-07-27T03:03:41.840Z,1004.28
2018-07-27T03:04:47.357Z,1004.24
2018-07-27T03:05:52.887Z,1004.26
2018-07-27T03:06:58.395Z,1004.23
2018-07-27T03:08:03.920Z,1004.23
2018-07-27T03:09:09.434Z,1004.27
2018-07-27T03:10:14.952Z,1004.29
2018-07-27T03:11:20.468Z,1004.26
2018-07-27T03:12:25.992Z,1004.28
2018-07-27T03:13:31.510Z,1004.29
2018-07-27T03:14:37.037Z,1004.27
2018-07-27T03:15:42.544Z,1004.32
2018-07-27T03:16:48.062Z,1004.28
2018-07-27T03:17:53.585Z,1004.28
2018-07-27T03:18:59.102Z,1004.29
2018-07-27T03:20:04.627Z,1004.26
2018-07-27T03:21:10.141Z,1004.28
2018-07-27T03:22:15.656Z,1004.29
2018-07-27T03:23:21.173Z,1004.30
2018-07-27T03:24:26.694Z,1004.26
2018-07-27T03:25:32.211Z,1004.27
2018-07-27T03:26:37.732Z,1004.27
2018-07-27T03:27:43.252Z,1004.31
2018-07-27T03:28:48.772Z,1004.26
2018-07-27T03:29:54.295Z,1004.29
2018-07-27T03:30:59.808Z,1004.30
2018-07-27T03:32:05.329Z,1004.31
2018-07-27T03:33:10.845Z,1004.27
2018-07-27T03:34:16.361Z,1004.28
2018-07-27T03:35:21.885Z,1004.27
2018-07-27T03:36:27.400Z,1004.30
2018-07-27T03:37:32.918Z,1004.24
2018-07-27T03:38:38.440Z,1004.27
2018-07-27T03:39:43.956Z,1004.27
2018-07-27T03:40:49.476Z,1004.28
2018-07-27T03:41:55.024Z,1004.27
2018-07-27T03:43:00.515Z,1004.30
2018-07-27T03:44:06.028Z,1004.31
2018-07-27T03:45:11.547Z,1004.28
2018-07-27T03:46:17.066Z,1004.26
2018-07-27T03:47:22.581Z,1004.24
2018-07-27T03:48:28.107Z,1004.26
2018-07-27T03:49:33.622Z,1004.23
2018-07-27T03:50:39.141Z,1004.24
2018-07-27T03:51:44.661Z,1004.24
2018-07-27T03:52:50.222Z,1004.23
2018-07-27T03:53:55.691Z,1004.25
2018-07-27T03:55:01.214Z,1004.23
2018-07-27T03:56:06.729Z,1004.22
2018-07-27T03:57:12.247Z,1004.22
2018-07-27T03:58:17.771Z,1004.24
2018-07-27T03:59:23.286Z,1004.22
2018-07-27T04:00:28.803Z,1004.20
2018-07-27T04:01:34.324Z,1004.22
2018-07-27T04:02:39.850Z,1004.20
2018-07-27T04:03:45.364Z,1004.19
2018-07-27T04:04:50.879Z,1004.16
2018-07-27T04:05:56.396Z,1004.17
2018-07-27T04:07:01.920Z,1004.17
2018-07-27T04:08:07.440Z,1004.17
2018-07-27T04:09:12.948Z,1004.15
2018-07-27T04:10:18.469Z,1004.17
2018-07-27T04:11:24.017Z,1004.16
2018-07-27T04:12:29.509Z,1004.16
2018-07-27T04:13:35.029Z,1004.21
2018-07-27T04:14:40.542Z,1004.21
2018-07-27T04:15:46.062Z,1004.21
2018-07-27T04:16:51.582Z,1004.20
2018-07-27T04:17:57.099Z,1004.24
2018-07-27T04:19:02.623Z,1004.21
2018-07-27T04:20:08.137Z,1004.21
2018-07-27T04:21:13.652Z,1004.23
2018-07-27T04:22:19.209Z,1004.20
2018-07-27T04:23:24.693Z,1004.27
2018-07-27T04:24:30.208Z,1004.25
2018-07-27T04:25:35.726Z,1004.23
2018-07-27T04:26:41.241Z,1004.25
2018-07-27T04:27:46.761Z,1004.28
2018-07-27T04:28:52.282Z,1004.26
2018-07-27T04:29:57.800Z,1004.26
2018-07-27T04:31:03.317Z,1004.30
2018-07-27T04:32:08.838Z,1004.28
2018-07-27T04:33:14.368Z,1004.24
2018-07-27T04:34:19.869Z,1004.26
2018-07-27T04:35:25.395Z,1004.26
2018-07-27T04:36:30.912Z,1004.28
2018-07-27T04:37:36.428Z,1004.26
2018-07-27T04:38:41.951Z,1004.30
2018-07-27T04:39:47.466Z,1004.29
2018-07-27T04:40:52.983Z,1004.31
2018-07-27T04:41:58.498Z,1004.30
2018-07-27T04:43:04.087Z,1004.29
2018-07-27T04:44:09.536Z,1004.31
2018-07-27T04:45:15.055Z,1004.32
2018-07-27T04:46:20.574Z,1004.30
2018-07-27T04:47:26.096Z,1004.32
2018-07-27T04:48:31.611Z,1004.33
2018-07-27T04:49:37.128Z,1004.35
2018-07-27T04:50:42.648Z,1004.40
2018-07-27T04:51:48.161Z,1004.36
2018-07-27T04:52:53.678Z,1004.34
2018-07-27T04:53:59.201Z,1004.34
2018-07-27T04:55:04.716Z,1004.36
2018-07-27T04:56:10.239Z,1004.36
2018-07-27T04:57:15.752Z,1004.37
2018-07-27T04:58:21.277Z,1004.38
2018-07-27T04:59:26.795Z,1004.39
2018-07-27T05:00:32.317Z,1004.40
2018-07-27T05:01:37.829Z,1004.42
2018-07-27T05:02:43.352Z,1004.42
2018-07-27T05:03:48.865Z,1004.41
2018-07-27T05:04:54.383Z,1004.45
2018-07-27T05:05:59.900Z,1004.43
2018-07-27T05:07:05.423Z,1004.39
2018-07-27T05:08:10.950Z,1004.42
2018-07-27T05:09:16.462Z,1004.42
2018-07-27T05:10:21.979Z,1004.42
2018-07-27T05:11:27.500Z,1004.42
2018-07-27T05:12:33.017Z,1004.41
2018-07-27T05:13:38.538Z,1004.42
2018-07-27T05:14:44.048Z,1004.46
2018-07-27T05:15:49.567Z,1004.37
2018-07-27T05:16:55.084Z,1004.42
2018-07-27T05:18:00.611Z,1004.42
2018-07-27T05:19:06.126Z,1004.40
2018-07-27T05:20:11.643Z,1004.42
2018-07-27T05:21:17.161Z,1004.42
2018-07-27T05:22:22.680Z,1004.40
2018-07-27T05:23:28.202Z,1004.37
2018-07-27T05:24:33.735Z,1004.38
2018-07-27T05:25:39.236Z,1004.38
2018-07-27T05:26:44.754Z,1004.34
2018-07-27T05:27:50.274Z,1004.36
2018-07-27T05:28:55.790Z,1004.34
2018-07-27T05:30:01.316Z,1004.32
2018-07-27T05:31:06.839Z,1004.33
2018-07-27T05:32:12.350Z,1004.36
2018-07-27T05:33:17.868Z,1004.38
2018-07-27T05:34:23.419Z,1004.38
2018-07-27T05:35:28.913Z,1004.34
2018-07-27T05:36:34.436Z,1004.36
2018-07-27T05:37:39.944Z,1004.40
2018-07-27T05:38:45.459Z,1004.38
2018-07-27T05:39:50.991Z,1004.36
2018-07-27T05:40:56.503Z,1004.33
2018-07-27T05:42:02.026Z,1004.38
2018-07-27T05:43:07.544Z,1004.37
2018-07-27T05:44:13.070Z,1004.38
2018-07-27T05:45:18.577Z,1004.36
2018-07-27T05:46:24.104Z,1004.38
2018-07-27T05:47:29.616Z,1004.42
2018-07-27T05:48:35.185Z,1004.41
2018-07-27T05:49:40.657Z,1004.42
2018-07-27T05:50:46.175Z,1004.44
2018-07-27T05:51:51.691Z,1004.41
2018-07-27T05:52:57.211Z,1004.42
2018-07-27T05:54:02.731Z,1004.40
2018-07-27T05:55:08.251Z,1004.40
2018-07-27T05:56:13.771Z,1004.39
2018-07-27T05:57:19.289Z,1004.42
2018-07-27T05:58:24.812Z,1004.41
2018-07-27T05:59:30.367Z,1004.45
2018-07-27T06:00:35.850Z,1004.44
2018-07-27T06:01:41.366Z,1004.45
2018-07-27T06:02:46.945Z,1004.47
2018-07-27T06:03:52.403Z,1004.45
2018-07-27T06:04:57.928Z,1004.45
2018-07-27T06:06:03.446Z,1004.43
2018-07-27T06:07:08.963Z,1004.38
2018-07-27T06:08:14.490Z,1004.40
2018-07-27T06:09:20.000Z,1004.41
2018-07-27T06:10:25.523Z,1004.41
2018-07-27T06:11:31.049Z,1004.38
2018-07-27T06:12:36.570Z,1004.40
2018-07-27T06:13:42.088Z,1004.39
2018-07-27T06:14:47.597Z,1004.37
2018-07-27T06:15:53.120Z,1004.39
2018-07-27T06:16:58.641Z,1004.39
2018-07-27T06:18:04.251Z,1004.40
2018-07-27T06:19:09.681Z,1004.39
2018-07-27T06:20:15.212Z,1004.36
2018-07-27T06:21:20.718Z,1004.34
2018-07-27T06:22:26.237Z,1004.36
2018-07-27T06:23:31.757Z,1004.40
2018-07-27T06:24:37.280Z,1004.35
2018-07-27T06:25:42.859Z,1004.38
2018-07-27T06:26:48.319Z,1004.39
2018-07-27T06:27:53.843Z,1004.38
2018-07-27T06:28:59.358Z,1004.37
2018-07-27T06:30:04.960Z,1004.40
2018-07-27T06:31:10.398Z,1004.40
2018-07-27T06:32:15.921Z,1004.40
2018-07-27T06:33:21.438Z,1004.40
2018-07-27T06:34:26.959Z,1004.41
2018-07-27T06:35:32.478Z,1004.42
2018-07-27T06:36:38.001Z,1004.43
2018-07-27T06:37:43.510Z,1004.43
2018-07-27T06:38:49.035Z,1004.42
2018-07-27T06:39:54.559Z,1004.42
2018-07-27T06:41:00.080Z,1004.45
2018-07-27T06:42:05.603Z,1004.45
2018-07-27T06:43:11.119Z,1004.42
2018-07-27T06:44:16.639Z,1004.44
2018-07-27T06:45:22.249Z,1004.50
2018-07-27T06:46:27.684Z,1004.49
2018-07-27T06:47:33.207Z,1004.48
2018-07-27T06:48:38.724Z,1004.45
2018-07-27T06:49:44.239Z,1004.43
2018-07-27T06:50:49.767Z,1004.47
2018-07-27T06:51:55.289Z,1004.44
2018-07-27T06:53:00.815Z,1004.45
2018-07-27T06:54:06.324Z,1004.42
2018-07-27T06:55:11.845Z,1004.42
2018-07-27T06:56:17.363Z,1004.49
2018-07-27T06:57:22.884Z,1004.45
2018-07-27T06:58:28.405Z,1004.43
2018-07-27T06:59:33.925Z,1004.41
2018-07-27T07:00:39.446Z,1004.41
2018-07-27T07:01:44.964Z,1004.41
2018-07-27T07:02:50.488Z,1004.38
2018-07-27T07:03:56.053Z,1004.42
2018-07-27T07:05:01.575Z,1004.39
2018-07-27T07:06:07.105Z,1004.38
2018-07-27T07:07:12.618Z,1004.39
2018-07-27T07:08:18.141Z,1004.37
2018-07-27T07:09:23.659Z,1004.39
2018-07-27T07:10:29.186Z,1004.40
2018-07-27T07:11:34.708Z,1004.39
2018-07-27T07:12:40.182Z,1004.42
2018-07-27T07:13:45.753Z,1004.41
2018-07-27T07:14:51.268Z,1004.37
2018-07-27T07:15:56.791Z,1004.37
2018-07-27T07:17:02.302Z,1004.39
2018-07-27T07:18:07.783Z,1004.38
2018-07-27T07:19:13.298Z,1004.40
2018-07-27T07:20:18.820Z,1004.38
2018-07-27T07:21:24.341Z,1004.42
2018-07-27T07:22:29.855Z,1004.39
2018-07-27T07:23:35.381Z,1004.39
2018-07-27T07:24:40.904Z,1004.45
2018-07-27T07:25:46.536Z,1004.38
2018-07-27T07:26:51.939Z,1004.41
2018-07-27T07:27:57.473Z,1004.39
2018-07-27T07:29:02.996Z,1004.41
2018-07-27T07:30:08.506Z,1004.47
2018-07-27T07:31:14.030Z,1004.44
2018-07-27T07:32:19.544Z,1004.46
2018-07-27T07:33:25.071Z,1004.43
2018-07-27T07:34:30.591Z,1004.44
2018-07-27T07:35:36.113Z,1004.42
2018-07-27T07:36:41.634Z,1004.40
2018-07-27T07:37:47.150Z,1004.39
2018-07-27T07:38:52.673Z,1004.45
2018-07-27T07:39:58.198Z,1004.42
2018-07-27T07:41:03.708Z,1004.40
2018-07-27T07:42:09.243Z,1004.42
2018-07-27T07:43:14.769Z,1004.35
2018-07-27T07:44:20.276Z,1004.41
2018-07-27T07:45:25.801Z,1004.37
2018-07-27T07:46:31.322Z,1004.38
2018-07-27T07:47:36.843Z,1004.34
2018-07-27T07:48:42.362Z,1004.34
2018-07-27T07:49:47.884Z,1004.33
2018-07-27T07:50:53.409Z,1004.31
2018-07-27T07:51:58.932Z,1004.29
2018-07-27T07:53:04.452Z,1004.31
2018-07-27T07:54:09.971Z,1004.35
2018-07-27T07:55:15.495Z,1004.33
2018-07-27T07:56:21.013Z,1004.37
2018-07-27T07:57:26.535Z,1004.36
2018-07-27T07:58:32.103Z,1004.33
2018-07-27T07:59:37.582Z,1004.34
2018-07-27T08:00:43.100Z,1004.37
2018-07-27T08:01:48.622Z,1004.33
2018-07-27T08:02:54.152Z,1004.29
2018-07-27T08:03:59.665Z,1004.25
2018-07-27T08:05:05.187Z,1004.25
2018-07-27T08:06:10.712Z,1004.23
2018-07-27T08:07:16.233Z,1004.23
2018-07-27T08:08:21.754Z,1004.21
2018-07-27T08:09:27.285Z,1004.21
2018-07-27T08:10:32.797Z,1004.16
2018-07-27T08:11:38.317Z,1004.21
2018-07-27T08:12:43.846Z,1004.17
2018-07-27T08:13:49.363Z,1004.18
2018-07-27T08:14:54.887Z,1004.15
2018-07-27T08:16:00.419Z,1004.09
2018-07-27T08:17:05.930Z,1004.14
2018-07-27T08:18:11.454Z,1004.13
2018-07-27T08:19:16.983Z,1004.10
2018-07-27T08:20:22.496Z,1004.14
2018-07-27T08:21:28.018Z,1004.10
2018-07-27T08:22:33.540Z,1004.14
2018-07-27T08:23:39.063Z,1004.13
2018-07-27T08:24:44.590Z,1004.12
2018-07-27T08:25:50.115Z,1004.12
2018-07-27T08:26:55.625Z,1004.08
2018-07-27T08:28:01.146Z,1004.08
2018-07-27T08:29:06.674Z,1004.04
2018-07-27T08:30:12.191Z,1004.02
2018-07-27T08:31:17.715Z,1004.05
2018-07-27T08:32:23.238Z,1004.02
2018-07-27T08:33:28.760Z,1004.02
2018-07-27T08:34:34.280Z,1003.97
2018-07-27T08:35:39.822Z,1003.95
2018-07-27T08:36:45.328Z,1003.98
2018-07-27T08:37:50.857Z,1003.97
2018-07-27T08:38:56.427Z,1003.94
2018-07-27T08:40:01.895Z,1003.94
2018-07-27T08:41:07.418Z,1003.97
2018-07-27T08:42:12.937Z,1003.96
2018-07-27T08:43:18.470Z,1003.94
2018-07-27T08:44:23.984Z,1003.92
2018-07-27T08:45:29.504Z,1003.87
2018-07-27T08:46:35.030Z,1003.88
2018-07-27T08:47:40.554Z,1003.87
2018-07-27T08:48:46.079Z,1003.88
2018-07-27T08:49:51.602Z,1003.87
2018-07-27T08:50:57.123Z,1003.89
2018-07-27T08:52:02.639Z,1003.85
2018-07-27T08:53:08.162Z,1003.85
2018-07-27T08:54:13.685Z,1003.83
2018-07-27T08:55:19.211Z,1003.83
2018-07-27T08:56:24.800Z,1003.83
2018-07-27T08:57:30.252Z,1003.83
2018-07-27T08:58:35.778Z,1003.80
2018-07-27T08:59:41.298Z,1003.84
2018-07-27T09:00:46.818Z,1003.80
2018-07-27T09:01:52.349Z,1003.84
2018-07-27T09:02:57.870Z,1003.81
2018-07-27T09:04:03.398Z,1003.77
2018-07-27T09:05:08.919Z,1003.76
2018-07-27T09:06:14.432Z,1003.79
2018-07-27T09:07:19.958Z,1003.81
2018-07-27T09:08:25.485Z,1003.78
2018-07-27T09:09:31.004Z,1003.73
2018-07-27T09:10:36.527Z,1003.67
2018-07-27T09:11:42.047Z,1003.71
2018-07-27T09:12:47.577Z,1003.71
2018-07-27T09:13:53.107Z,1003.73
2018-07-27T09:14:58.616Z,1003.70
2018-07-27T09:16:04.145Z,1003.73
2018-07-27T09:17:09.667Z,1003.74
2018-07-27T09:18:15.204Z,1003.71
2018-07-27T09:19:20.710Z,1003.74
2018-07-27T09:20:26.233Z,1003.75
2018-07-27T09:21:31.760Z,1003.75
2018-07-27T09:22:37.283Z,1003.73
2018-07-27T09:23:42.808Z,1003.73
2018-07-27T09:24:48.449Z,1003.68
2018-07-27T09:25:53.846Z,1003.67
2018-07-27T09:26:59.378Z,1003.64
2018-07-27T09:28:04.902Z,1003.62
2018-07-27T09:29:10.418Z,1003.61
2018-07-27T09:30:15.957Z,1003.59
2018-07-27T09:31:21.464Z,1003.62
2018-07-27T09:32:26.992Z,1003.60
2018-07-27T09:33:32.510Z,1003.59
2018-07-27T09:34:38.037Z,1003.58
2018-07-27T09:35:43.560Z,1003.57
2018-07-27T09:36:49.082Z,1003.54
2018-07-27T09:37:54.609Z,1003.51
2018-07-27T09:39:00.129Z,1003.52
2018-07-27T09:40:05.650Z,1003.48
2018-07-27T09:41:11.186Z,1003.47
2018-07-27T09:42:16.700Z,1003.50
2018-07-27T09:43:22.228Z,1003.47
2018-07-27T09:44:27.749Z,1003.46
2018-07-27T09:45:33.271Z,1003.45
2018-07-27T09:46:38.857Z,1003.47
2018-07-27T09:47:44.319Z,1003.46
2018-07-27T09:48:49.834Z,1003.47
2018-07-27T09:49:55.361Z,1003.46
2018-07-27T09:51:00.895Z,1003.47
2018-07-27T09:52:06.413Z,1003.43
2018-07-27T09:53:11.939Z,1003.41
2018-07-27T09:54:17.453Z,1003.42
2018-07-27T09:55:22.982Z,1003.41
2018-07-27T09:56:28.505Z,1003.44
2018-07-27T09:57:34.077Z,1003.38
2018-07-27T09:58:39.549Z,1003.35
2018-07-27T09:59:45.073Z,1003.38
2018-07-27T10:00:50.596Z,1003.41
2018-07-27T10:01:56.124Z,1003.40
2018-07-27T10:03:01.642Z,1003.45
2018-07-27T10:04:07.168Z,1003.42
2018-07-27T10:05:12.703Z,1003.41
2018-07-27T10:06:18.219Z,1003.40
2018-07-27T10:07:23.738Z,1003.38
2018-07-27T10:08:29.275Z,1003.32
2018-07-27T10:09:34.793Z,1003.37
2018-07-27T10:10:40.309Z,1003.33
2018-07-27T10:11:45.828Z,1003.30
2018-07-27T10:12:51.398Z,1003.31
2018-07-27T10:13:56.887Z,1003.31
2018-07-27T10:15:02.410Z,1003.32
2018-07-27T10:16:07.935Z,1003.31
2018-07-27T10:17:13.452Z,1003.27
2018-07-27T10:18:18.984Z,1003.27
2018-07-27T10:19:24.509Z,1003.24
2018-07-27T10:20:30.047Z,1003.22
2018-07-27T10:21:35.556Z,1003.15
2018-07-27T10:22:41.084Z,1003.22
2018-07-27T10:23:46.596Z,1003.22
2018-07-27T10:24:52.121Z,1003.22
2018-07-27T10:25:57.649Z,1003.24
2018-07-27T10:27:03.168Z,1003.26
2018-07-27T10:28:08.702Z,1003.28
2018-07-27T10:29:14.220Z,1003.23
2018-07-27T10:30:19.744Z,1003.18
2018-07-27T10:31:25.266Z,1003.16
2018-07-27T10:32:30.791Z,1003.14
2018-07-27T10:33:36.318Z,1003.11
2018-07-27T10:34:41.855Z,1003.18
2018-07-27T10:35:47.365Z,1003.12
2018-07-27T10:36:52.891Z,1003.07
2018-07-27T10:37:58.424Z,1003.05
2018-07-27T10:39:03.935Z,1003.03
2018-07-27T10:40:09.463Z,1002.99
2018-07-27T10:41:14.983Z,1003.00
2018-07-27T10:42:20.510Z,1002.93
2018-07-27T10:43:26.038Z,1002.91
2018-07-27T10:44:31.558Z,1002.94
2018-07-27T10:45:37.082Z,1002.92
2018-07-27T10:46:42.618Z,1002.93
2018-07-27T10:47:48.138Z,1002.91
2018-07-27T10:48:53.661Z,1002.95
2018-07-27T10:49:59.182Z,1002.97
2018-07-27T10:51:04.712Z,1002.94
2018-07-27T10:52:10.228Z,1002.96
2018-07-27T10:53:15.763Z,1002.90
2018-07-27T10:54:21.279Z,1002.86
2018-07-27T10:55:26.801Z,1002.82
2018-07-27T10:56:32.354Z,1002.81
2018-07-27T10:57:37.858Z,1002.91
2018-07-27T10:58:43.374Z,1002.84
2018-07-27T10:59:48.898Z,1002.78
2018-07-27T11:00:54.422Z,1002.78
2018-07-27T11:01:59.950Z,1002.75
2018-07-27T11:03:05.474Z,1002.76
2018-07-27T11:04:11.005Z,1002.75
2018-07-27T11:05:16.526Z,1002.72
2018-07-27T11:06:22.049Z,1002.73
2018-07-27T11:07:27.600Z,1002.72
2018-07-27T11:08:33.101Z,1002.73
2018-07-27T11:09:38.680Z,1002.69
2018-07-27T11:10:44.153Z,1002.69
2018-07-27T11:11:49.675Z,1002.62
2018-07-27T11:12:55.207Z,1002.62
2018-07-27T11:14:00.722Z,1002.63
2018-07-27T11:15:06.251Z,1002.63
2018-07-27T11:16:11.787Z,1002.67
2018-07-27T11:17:17.363Z,1002.61
2018-07-27T11:18:22.867Z,1002.60
2018-07-27T11:19:28.352Z,1002.59
2018-07-27T11:20:33.881Z,1002.61
2018-07-27T11:21:39.398Z,1002.60
2018-07-27T11:22:44.925Z,1002.60
2018-07-27T11:23:50.449Z,1002.61
2018-07-27T11:24:55.971Z,1002.58
2018-07-27T11:26:01.492Z,1002.59
2018-07-27T11:27:07.020Z,1002.58
2018-07-27T11:28:12.552Z,1002.59
2018-07-27T11:29:18.081Z,1002.47
2018-07-27T11:30:23.602Z,1002.51
2018-07-27T11:31:29.140Z,1002.49
2018-07-27T11:32:34.646Z,1002.43
2018-07-27T11:33:40.166Z,1002.43
2018-07-27T11:34:45.697Z,1002.41
2018-07-27T11:35:51.224Z,1002.44
2018-07-27T11:36:56.770Z,1002.41
2018-07-27T11:38:02.270Z,1002.40
2018-07-27T11:39:07.810Z,1002.43
2018-07-27T11:40:13.322Z,1002.44
2018-07-27T11:41:18.846Z,1002.47
2018-07-27T11:42:24.395Z,1002.49
2018-07-27T11:43:29.906Z,1002.46
2018-07-27T11:44:35.421Z,1002.49
2018-07-27T11:45:40.960Z,1002.41
2018-07-27T11:46:46.471Z,1002.35
2018-07-27T11:47:52.008Z,1002.36
2018-07-27T11:48:57.524Z,1002.39
2018-07-27T11:50:03.050Z,1002.37
2018-07-27T11:51:08.572Z,1002.30
2018-07-27T11:52:14.094Z,1002.33
2018-07-27T11:53:19.625Z,1002.29
2018-07-27T11:54:25.176Z,1002.28
2018-07-27T11:55:30.669Z,1002.33
2018-07-27T11:56:36.208Z,1002.29
2018-07-27T11:57:41.726Z,1002.29
2018-07-27T11:58:47.251Z,1002.32
2018-07-27T11:59:52.776Z,1002.28
2018-07-27T12:00:58.301Z,1002.29
2018-07-27T12:02:03.842Z,1002.26
2018-07-27T12:03:09.355Z,1002.23
2018-07-27T12:04:14.878Z,1002.22
2018-07-27T12:05:20.400Z,1002.19
2018-07-27T12:06:25.928Z,1002.12
2018-07-27T12:07:31.453Z,1002.14
2018-07-27T12:08:36.977Z,1002.17
2018-07-27T12:09:42.503Z,1002.05
2018-07-27T12:10:48.040Z,1002.13
2018-07-27T12:11:53.553Z,1002.13
2018-07-27T12:12:59.081Z,1002.04
2018-07-27T12:14:04.768Z,1002.10
2018-07-27T12:15:10.432Z,1002.06
2018-07-27T12:16:15.660Z,1002.07
2018-07-27T12:17:21.188Z,1002.09
2018-07-27T12:18:26.713Z,1002.06
2018-07-27T12:19:32.248Z,1002.08
2018-07-27T12:20:37.800Z,1002.04
2018-07-27T12:21:43.561Z,1002.04
2018-07-27T12:22:48.811Z,1002.01
2018-07-27T12:23:54.337Z,1002.01
2018-07-27T12:24:59.864Z,1002.09
2018-07-27T12:26:05.388Z,1002.07
2018-07-27T12:27:10.931Z,1002.00
2018-07-27T12:28:16.441Z,1002.00
2018-07-27T12:29:21.969Z,1001.97
2018-07-27T12:30:27.493Z,1001.96
2018-07-27T12:31:33.015Z,1001.98
2018-07-27T12:32:38.569Z,1002.00
2018-07-27T12:33:44.072Z,1001.99
2018-07-27T12:34:49.597Z,1001.97
2018-07-27T12:35:55.126Z,1001.93
2018-07-27T12:37:00.652Z,1001.85
2018-07-27T12:38:06.182Z,1001.84
2018-07-27T12:39:11.701Z,1001.77
2018-07-27T12:40:17.227Z,1001.79
2018-07-27T12:41:22.751Z,1001.82
2018-07-27T12:42:28.286Z,1001.77
2018-07-27T12:43:33.808Z,1001.76
2018-07-27T12:44:39.330Z,1001.84
2018-07-27T12:45:44.858Z,1001.84
2018-07-27T12:46:50.393Z,1001.81
2018-07-27T12:47:55.910Z,1001.77
2018-07-27T12:49:01.444Z,1001.74
2018-07-27T12:50:06.960Z,1001.71
2018-07-27T12:51:12.523Z,1001.70
2018-07-27T12:52:18.015Z,1001.69
2018-07-27T12:53:23.541Z,1001.65
2018-07-27T12:54:29.064Z,1001.60
2018-07-27T12:55:34.589Z,1001.60
2018-07-27T12:56:40.115Z,1001.63
2018-07-27T12:57:45.644Z,1001.55
2018-07-27T12:58:51.165Z,1001.60
2018-07-27T12:59:56.693Z,1001.55
2018-07-27T13:01:02.221Z,1001.53
2018-07-27T13:02:07.746Z,1001.62
2018-07-27T13:03:13.360Z,1001.63
2018-07-27T13:04:18.797Z,1001.59
2018-07-27T13:05:24.328Z,1001.57
2018-07-27T13:06:29.851Z,1001.62
2018-07-27T13:07:35.383Z,1001.60
2018-07-27T13:08:40.905Z,1001.56
2018-07-27T13:09:46.431Z,1001.58
2018-07-27T13:10:51.984Z,1001.62
2018-07-27T13:11:57.491Z,1001.48